createdAt,value
2023-04-24T00:00:25.662Z,11.10
2023-04-24T00:01:59.493Z,11.10
2023-04-24T00:03:31.800Z,11.10
2023-04-24T00:05:05.586Z,11.10
2023-04-24T00:06:43.816Z,11.10
2023-04-24T00:08:15.891Z,11.10
2023-04-24T00:09:48.835Z,11.10
2023-04-24T00:11:21.872Z,11.10
2023-04-24T00:12:55.057Z,11.10
2023-04-24T00:14:28.157Z,11.10
2023-04-24T00:16:01.119Z,11.00
2023-04-24T00:17:34.075Z,11.00
2023-04-24T00:19:07.872Z,11.00
2023-04-24T00:20:40.851Z,11.00
2023-04-24T00:22:15.749Z,10.90
2023-04-24T00:23:48.715Z,10.90
2023-04-24T00:25:21.639Z,10.90
2023-04-24T00:26:54.573Z,10.90
2023-04-24T00:28:27.644Z,10.90
2023-04-24T00:30:00.608Z,10.90
2023-04-24T00:31:35.856Z,10.90
2023-04-24T00:33:09.030Z,10.90
2023-04-24T00:34:42.287Z,10.90
2023-04-24T00:36:15.219Z,10.90
2023-04-24T00:37:48.593Z,10.90
2023-04-24T00:39:21.536Z,10.80
2023-04-24T00:40:55.089Z,10.80
2023-04-24T00:42:28.101Z,10.80
2023-04-24T00:44:01.074Z,10.80
2023-04-24T00:45:34.174Z,10.70
2023-04-24T00:47:06.657Z,10.80
2023-04-24T00:48:41.162Z,10.70
2023-04-24T00:50:16.192Z,10.70
2023-04-24T00:51:50.309Z,10.70
2023-04-24T00:53:24.685Z,10.70
2023-04-24T00:54:56.593Z,10.60
2023-04-24T00:56:29.898Z,10.60
2023-04-24T00:58:02.716Z,10.60
2023-04-24T00:59:36.820Z,10.60
2023-04-24T01:01:10.527Z,10.60
2023-04-24T01:02:46.391Z,10.60
2023-04-24T01:04:19.989Z,10.70
2023-04-24T01:05:53.187Z,10.60
2023-04-24T01:07:27.538Z,10.70
2023-04-24T01:09:02.332Z,10.70
2023-04-24T01:10:36.734Z,10.70
2023-04-24T01:12:10.077Z,10.70
2023-04-24T01:13:43.099Z,10.70
2023-04-24T01:15:15.161Z,10.70
2023-04-24T01:16:48.146Z,10.70
2023-04-24T01:18:22.894Z,10.70
2023-04-24T01:19:57.665Z,10.70
2023-04-24T01:21:35.612Z,10.70
2023-04-24T01:23:09.370Z,10.70
2023-04-24T01:24:42.516Z,10.70
2023-04-24T01:26:17.089Z,10.60
2023-04-24T01:27:49.088Z,10.70
2023-04-24T01:29:22.143Z,10.60
2023-04-24T01:30:55.519Z,10.60
2023-04-24T01:32:28.449Z,10.60
2023-04-24T01:34:00.572Z,10.60
2023-04-24T01:35:33.900Z,10.60
2023-04-24T01:37:07.112Z,10.60
2023-04-24T01:38:41.532Z,10.60
2023-04-24T01:40:14.626Z,10.70
2023-04-24T01:41:47.582Z,10.80
2023-04-24T01:43:20.822Z,10.70
2023-04-24T01:44:53.690Z,10.80
2023-04-24T01:46:27.288Z,10.80
2023-04-24T01:48:00.723Z,10.80
2023-04-24T01:49:33.849Z,10.90
2023-04-24T01:51:06.872Z,10.90
2023-04-24T01:52:40.382Z,10.90
2023-04-24T01:54:13.852Z,10.90
2023-04-24T01:55:46.826Z,10.90
2023-04-24T01:57:18.764Z,10.90
2023-04-24T01:58:54.403Z,10.90
2023-04-24T02:00:27.571Z,11.00
2023-04-24T02:02:00.534Z,11.00
2023-04-24T02:03:32.628Z,11.00
2023-04-24T02:05:08.527Z,11.00
2023-04-24T02:06:41.438Z,11.00
2023-04-24T02:08:14.380Z,11.00
2023-04-24T02:09:48.667Z,11.00
2023-04-24T02:11:20.799Z,11.00
2023-04-24T02:12:53.756Z,11.00
2023-04-24T02:14:26.677Z,11.00
2023-04-24T02:16:00.627Z,11.00
2023-04-24T02:17:33.630Z,10.90
2023-04-24T02:19:06.787Z,10.90
2023-04-24T02:20:38.993Z,10.90
2023-04-24T02:22:11.952Z,10.90
2023-04-24T02:23:44.889Z,10.80
2023-04-24T02:25:19.127Z,10.80
2023-04-24T02:26:52.073Z,10.70
2023-04-24T02:28:25.062Z,10.70
2023-04-24T02:29:57.971Z,10.70
2023-04-24T02:31:30.951Z,10.70
2023-04-24T02:33:04.302Z,10.70
2023-04-24T02:34:37.051Z,10.60
2023-04-24T02:36:10.466Z,10.60
2023-04-24T02:37:43.390Z,10.60
2023-04-24T02:39:17.470Z,10.60
2023-04-24T02:40:51.737Z,10.60
2023-04-24T02:42:24.653Z,10.60
2023-04-24T02:43:57.566Z,10.60
2023-04-24T02:45:30.627Z,10.60
2023-04-24T02:47:02.990Z,10.70
2023-04-24T02:48:35.976Z,10.70
2023-04-24T02:50:10.001Z,10.70
2023-04-24T02:51:42.923Z,10.70
2023-04-24T02:53:15.815Z,10.70
2023-04-24T02:54:48.692Z,10.80
2023-04-24T02:56:23.414Z,10.70
2023-04-24T02:57:56.360Z,10.70
2023-04-24T02:59:29.895Z,10.70
2023-04-24T03:01:02.980Z,10.70
2023-04-24T03:02:35.246Z,10.70
2023-04-24T03:04:08.437Z,10.80
2023-04-24T03:05:40.578Z,10.80
2023-04-24T03:07:13.674Z,10.80
2023-04-24T03:08:46.554Z,10.80
2023-04-24T03:10:19.569Z,10.80
2023-04-24T03:11:53.806Z,10.80
2023-04-24T03:13:26.709Z,10.80
2023-04-24T03:14:59.879Z,10.80
2023-04-24T03:16:34.073Z,10.80
2023-04-24T03:18:06.197Z,10.80
2023-04-24T03:19:39.859Z,10.80
2023-04-24T03:21:12.623Z,10.80
2023-04-24T03:22:45.695Z,10.80
2023-04-24T03:24:17.634Z,10.70
2023-04-24T03:25:50.564Z,10.70
2023-04-24T03:27:24.848Z,10.70
2023-04-24T03:28:57.731Z,10.70
2023-04-24T03:30:30.698Z,10.70
2023-04-24T03:32:03.627Z,10.70
2023-04-24T03:33:37.087Z,10.70
2023-04-24T03:35:10.675Z,10.70
2023-04-24T03:36:43.662Z,10.70
2023-04-24T03:38:16.555Z,10.60
2023-04-24T03:39:48.687Z,10.60
2023-04-24T03:41:23.018Z,10.50
2023-04-24T03:42:57.289Z,10.60
2023-04-24T03:44:30.270Z,10.50
2023-04-24T03:46:02.495Z,10.50
2023-04-24T03:47:35.498Z,10.50
2023-04-24T03:49:08.372Z,10.50
2023-04-24T03:50:40.353Z,10.40
2023-04-24T03:52:13.322Z,10.40
2023-04-24T03:53:46.181Z,10.40
2023-04-24T03:55:19.120Z,10.30
2023-04-24T03:56:52.071Z,10.30
2023-04-24T03:58:26.345Z,10.30
2023-04-24T03:59:59.582Z,10.30
2023-04-24T04:01:32.760Z,10.30
2023-04-24T04:03:04.784Z,10.20
2023-04-24T04:04:38.114Z,10.20
2023-04-24T04:06:12.127Z,10.20
2023-04-24T04:07:45.109Z,10.20
2023-04-24T04:09:18.001Z,10.20
2023-04-24T04:10:50.941Z,10.20
2023-04-24T04:12:23.806Z,10.20
2023-04-24T04:13:58.706Z,10.20
2023-04-24T04:15:31.821Z,10.20
2023-04-24T04:17:03.824Z,10.20
2023-04-24T04:18:37.176Z,10.20
2023-04-24T04:20:11.009Z,10.20
2023-04-24T04:21:44.066Z,10.30
2023-04-24T04:23:16.930Z,10.30
2023-04-24T04:24:51.919Z,10.30
2023-04-24T04:26:26.454Z,10.30
2023-04-24T04:28:00.500Z,10.30
2023-04-24T04:29:35.619Z,10.30
2023-04-24T04:31:08.817Z,10.30
2023-04-24T04:32:42.109Z,10.40
2023-04-24T04:34:15.184Z,10.40
2023-04-24T04:35:49.717Z,10.40
2023-04-24T04:37:22.637Z,10.30
2023-04-24T04:38:55.671Z,10.30
2023-04-24T04:40:28.893Z,10.30
2023-04-24T04:42:01.904Z,10.30
2023-04-24T04:43:35.612Z,10.40
2023-04-24T04:45:12.309Z,10.40
2023-04-24T04:46:45.444Z,10.40
2023-04-24T04:48:19.652Z,10.40
2023-04-24T04:49:52.557Z,10.50
2023-04-24T04:51:25.528Z,10.40
2023-04-24T04:52:58.420Z,10.50
2023-04-24T04:54:31.352Z,10.50
2023-04-24T04:56:04.381Z,10.50
2023-04-24T04:57:36.285Z,10.60
2023-04-24T04:59:09.135Z,10.50
2023-04-24T05:00:43.458Z,10.60
2023-04-24T05:02:16.754Z,10.60
2023-04-24T05:03:49.970Z,10.60
2023-04-24T05:05:22.909Z,10.70
2023-04-24T05:06:55.925Z,10.70
2023-04-24T05:08:28.853Z,10.80
2023-04-24T05:10:01.816Z,10.80
2023-04-24T05:11:34.798Z,10.90
2023-04-24T05:13:07.796Z,10.80
2023-04-24T05:14:40.655Z,10.90
2023-04-24T05:16:14.854Z,10.90
2023-04-24T05:17:47.804Z,11.00
2023-04-24T05:19:20.928Z,11.10
2023-04-24T05:20:53.828Z,11.10
2023-04-24T05:22:26.762Z,11.20
2023-04-24T05:23:59.706Z,11.20
2023-04-24T05:25:36.244Z,11.30
2023-04-24T05:27:09.167Z,11.40
2023-04-24T05:28:42.172Z,11.50
2023-04-24T05:30:15.385Z,11.60
2023-04-24T05:31:49.623Z,11.60
2023-04-24T05:33:23.081Z,11.70
2023-04-24T05:34:56.285Z,11.70
2023-04-24T05:36:29.110Z,11.80
2023-04-24T05:38:02.493Z,11.80
2023-04-24T05:39:35.551Z,11.80
2023-04-24T05:41:08.515Z,11.90
2023-04-24T05:42:41.460Z,11.90
2023-04-24T05:44:14.352Z,11.90
2023-04-24T05:45:47.294Z,12.00
2023-04-24T05:47:22.742Z,12.00
2023-04-24T05:48:55.679Z,12.10
2023-04-24T05:50:28.548Z,12.10
2023-04-24T05:52:01.446Z,12.20
2023-04-24T05:53:34.310Z,12.30
2023-04-24T05:55:08.655Z,12.30
2023-04-24T05:56:43.157Z,12.40
2023-04-24T05:58:16.682Z,12.50
2023-04-24T05:59:49.583Z,12.60
2023-04-24T06:01:22.436Z,12.60
2023-04-24T06:02:56.983Z,12.70
2023-04-24T06:04:30.450Z,12.80
2023-04-24T06:06:03.708Z,12.90
2023-04-24T06:07:36.690Z,13.00
2023-04-24T06:09:09.583Z,13.10
2023-04-24T06:10:42.492Z,13.20
2023-04-24T06:12:15.384Z,13.30
2023-04-24T06:13:48.314Z,13.50
2023-04-24T06:15:21.161Z,13.60
2023-04-24T06:16:54.162Z,13.70
2023-04-24T06:18:28.527Z,13.70
2023-04-24T06:20:00.533Z,13.70
2023-04-24T06:21:33.625Z,13.50
2023-04-24T06:23:06.541Z,13.50
2023-04-24T06:24:39.542Z,13.40
2023-04-24T06:26:12.509Z,13.40
2023-04-24T06:27:45.410Z,13.30
2023-04-24T06:29:18.289Z,13.20
2023-04-24T06:30:51.138Z,13.10
2023-04-24T06:32:25.350Z,13.00
2023-04-24T06:33:59.788Z,12.90
2023-04-24T06:35:32.809Z,12.80
2023-04-24T06:37:05.818Z,12.80
2023-04-24T06:38:38.723Z,12.80
2023-04-24T06:40:12.429Z,12.80
2023-04-24T06:41:45.542Z,12.80
2023-04-24T06:43:18.595Z,12.80
2023-04-24T06:44:51.477Z,12.70
2023-04-24T06:46:27.095Z,12.70
2023-04-24T06:48:00.251Z,12.70
2023-04-24T06:49:34.543Z,12.70
2023-04-24T06:51:07.593Z,12.70
2023-04-24T06:52:40.488Z,12.80
2023-04-24T06:54:13.721Z,12.90
2023-04-24T06:55:47.153Z,12.90
2023-04-24T06:57:20.148Z,13.00
2023-04-24T06:58:53.222Z,13.00
2023-04-24T07:00:26.343Z,13.10
2023-04-24T07:01:59.582Z,13.20
2023-04-24T07:03:32.888Z,13.30
2023-04-24T07:05:07.828Z,13.40
2023-04-24T07:06:41.107Z,13.40
2023-04-24T07:08:14.604Z,13.50
2023-04-24T07:09:47.534Z,13.60
2023-04-24T07:11:21.312Z,13.60
2023-04-24T07:12:54.964Z,13.40
2023-04-24T07:14:27.906Z,13.60
2023-04-24T07:16:00.803Z,13.80
2023-04-24T07:17:33.817Z,14.00
2023-04-24T07:19:07.164Z,14.10
2023-04-24T07:20:42.001Z,14.20
2023-04-24T07:22:17.823Z,14.10
2023-04-24T07:23:50.948Z,14.20
2023-04-24T07:25:23.901Z,14.30
2023-04-24T07:26:57.930Z,14.40
2023-04-24T07:28:32.552Z,14.40
2023-04-24T07:30:06.584Z,14.40
2023-04-24T07:31:39.738Z,14.40
2023-04-24T07:33:14.213Z,14.40
2023-04-24T07:34:47.270Z,14.20
2023-04-24T07:36:21.596Z,14.10
2023-04-24T07:37:55.268Z,14.00
2023-04-24T07:39:28.695Z,13.90
2023-04-24T07:41:01.700Z,13.70
2023-04-24T07:42:35.619Z,13.60
2023-04-24T07:44:08.727Z,13.40
2023-04-24T07:45:41.835Z,13.30
2023-04-24T07:47:15.785Z,13.30
2023-04-24T07:48:58.593Z,13.20
2023-04-24T07:50:38.522Z,13.10
2023-04-24T07:52:12.889Z,13.10
2023-04-24T07:53:46.006Z,13.20
2023-04-24T07:55:20.445Z,13.30
2023-04-24T07:56:55.566Z,13.30
2023-04-24T07:58:28.515Z,13.40
2023-04-24T08:00:01.776Z,13.50
2023-04-24T08:01:34.741Z,13.60
2023-04-24T08:03:07.842Z,13.60
2023-04-24T08:04:40.971Z,13.80
2023-04-24T08:06:14.097Z,14.00
2023-04-24T08:07:49.727Z,14.20
2023-04-24T08:09:22.787Z,14.40
2023-04-24T08:10:55.908Z,14.60
2023-04-24T08:12:31.312Z,14.80
2023-04-24T08:14:04.250Z,14.90
2023-04-24T08:15:37.262Z,14.80
2023-04-24T08:17:10.246Z,14.90
2023-04-24T08:18:43.235Z,14.80
2023-04-24T08:20:16.485Z,14.50
2023-04-24T08:21:49.290Z,14.20
2023-04-24T08:23:23.881Z,14.10
2023-04-24T08:24:57.967Z,14.10
2023-04-24T08:26:30.890Z,14.10
2023-04-24T08:28:04.886Z,14.10
2023-04-24T08:29:38.053Z,14.10
2023-04-24T08:31:11.240Z,14.10
2023-04-24T08:32:44.282Z,14.00
2023-04-24T08:34:17.249Z,13.90
2023-04-24T08:35:50.592Z,13.90
2023-04-24T08:37:23.395Z,13.90
2023-04-24T08:38:57.693Z,13.90
2023-04-24T08:40:31.845Z,14.00
2023-04-24T08:42:09.090Z,14.20
2023-04-24T08:43:43.716Z,14.50
2023-04-24T08:45:17.309Z,14.60
2023-04-24T08:46:52.401Z,14.70
2023-04-24T08:48:30.812Z,14.90
2023-04-24T08:50:06.919Z,15.30
2023-04-24T08:51:41.327Z,15.40
2023-04-24T08:53:14.521Z,15.30
2023-04-24T08:54:50.196Z,15.10
2023-04-24T08:56:25.630Z,15.20
2023-04-24T08:57:59.615Z,15.20
2023-04-24T08:59:33.385Z,15.20
2023-04-24T09:01:07.251Z,14.90
2023-04-24T09:02:44.102Z,15.00
2023-04-24T09:04:19.169Z,14.90
2023-04-24T09:05:55.379Z,14.60
2023-04-24T09:07:32.258Z,14.60
2023-04-24T09:09:06.470Z,14.90
2023-04-24T09:10:41.872Z,15.20
2023-04-24T09:12:15.502Z,15.40
2023-04-24T09:13:50.297Z,15.40
2023-04-24T09:15:23.584Z,15.50
2023-04-24T09:16:56.511Z,15.40
2023-04-24T09:18:29.648Z,15.10
2023-04-24T09:20:02.734Z,14.80
2023-04-24T09:21:37.114Z,14.70
2023-04-24T09:23:17.254Z,14.60
2023-04-24T09:24:50.551Z,14.40
2023-04-24T09:26:25.172Z,14.40
2023-04-24T09:28:03.741Z,14.50
2023-04-24T09:29:36.885Z,14.50
2023-04-24T09:31:11.844Z,14.50
2023-04-24T09:32:44.820Z,14.30
2023-04-24T09:34:24.769Z,14.10
2023-04-24T09:35:57.766Z,14.10
2023-04-24T09:37:31.616Z,14.10
2023-04-24T09:39:06.502Z,14.10
2023-04-24T09:40:41.531Z,14.20
2023-04-24T09:42:16.136Z,14.20
2023-04-24T09:43:49.189Z,14.10
2023-04-24T09:45:22.844Z,14.10
2023-04-24T09:47:01.095Z,14.30
2023-04-24T09:48:35.598Z,14.40
2023-04-24T09:50:13.729Z,14.70
2023-04-24T09:51:46.957Z,14.90
2023-04-24T09:53:26.595Z,15.00
2023-04-24T09:54:59.534Z,15.20
2023-04-24T09:56:36.148Z,15.50
2023-04-24T09:58:10.584Z,15.60
2023-04-24T09:59:47.694Z,15.60
2023-04-24T10:01:32.282Z,15.80
2023-04-24T10:03:06.836Z,16.00
2023-04-24T10:04:40.058Z,15.90
2023-04-24T10:06:14.936Z,15.80
2023-04-24T10:07:48.962Z,15.60
2023-04-24T10:09:24.415Z,15.60
2023-04-24T10:10:57.546Z,15.40
2023-04-24T10:12:31.334Z,15.40
2023-04-24T10:14:06.716Z,15.40
2023-04-24T10:15:40.106Z,15.20
2023-04-24T10:17:14.332Z,15.00
2023-04-24T10:18:47.604Z,14.90
2023-04-24T10:20:21.760Z,15.00
2023-04-24T10:21:56.650Z,14.90
2023-04-24T10:23:30.540Z,14.70
2023-04-24T10:25:06.530Z,14.60
2023-04-24T10:26:40.702Z,14.50
2023-04-24T10:28:14.769Z,14.60
2023-04-24T10:29:51.626Z,14.80
2023-04-24T10:31:24.830Z,15.00
2023-04-24T10:32:58.027Z,15.00
2023-04-24T10:34:31.664Z,15.00
2023-04-24T10:36:05.284Z,15.00
2023-04-24T10:37:40.562Z,15.00
2023-04-24T10:39:16.702Z,15.20
2023-04-24T10:40:49.822Z,15.40
2023-04-24T10:42:22.881Z,15.80
2023-04-24T10:44:07.687Z,16.10
2023-04-24T10:45:42.044Z,16.60
2023-04-24T10:47:16.029Z,16.90
2023-04-24T10:48:55.981Z,17.00
2023-04-24T10:50:30.350Z,16.10
2023-04-24T10:52:06.425Z,15.60
2023-04-24T10:53:39.656Z,15.10
2023-04-24T10:55:14.380Z,14.70
2023-04-24T10:56:47.414Z,14.10
2023-04-24T10:58:25.006Z,13.70
2023-04-24T11:00:18.856Z,13.60
2023-04-24T11:01:57.065Z,13.40
2023-04-24T11:03:31.690Z,13.20
2023-04-24T11:05:06.226Z,13.20
2023-04-24T11:06:39.456Z,13.30
2023-04-24T11:08:13.026Z,13.70
2023-04-24T11:09:45.978Z,13.90
2023-04-24T11:11:21.771Z,14.00
2023-04-24T11:12:54.936Z,14.30
2023-04-24T11:14:27.884Z,14.20
2023-04-24T11:16:17.804Z,14.30
2023-04-24T11:17:57.843Z,14.60
2023-04-24T11:19:30.833Z,14.80
2023-04-24T11:21:13.055Z,15.10
2023-04-24T11:22:46.127Z,15.30
2023-04-24T11:24:40.708Z,15.40
2023-04-24T11:26:15.478Z,15.50
2023-04-24T11:27:49.448Z,15.40
2023-04-24T11:29:24.517Z,15.50
2023-04-24T11:30:58.361Z,15.60
2023-04-24T11:32:31.815Z,15.90
2023-04-24T11:34:11.373Z,15.90
2023-04-24T11:35:45.284Z,15.70
2023-04-24T11:37:18.422Z,15.90
2023-04-24T11:38:51.326Z,15.80
2023-04-24T11:40:26.401Z,15.80
2023-04-24T11:42:04.770Z,16.00
2023-04-24T11:43:38.633Z,16.00
2023-04-24T11:45:13.970Z,16.30
2023-04-24T11:46:47.093Z,16.40
2023-04-24T11:48:23.453Z,16.60
2023-04-24T11:49:58.319Z,16.50
2023-04-24T11:51:43.947Z,16.40
2023-04-24T11:53:24.369Z,15.90
2023-04-24T11:54:57.493Z,15.30
2023-04-24T11:56:30.610Z,15.00
2023-04-24T11:58:03.527Z,14.70
2023-04-24T11:59:39.875Z,14.50
2023-04-24T12:01:13.128Z,14.50
2023-04-24T12:02:46.255Z,14.50
2023-04-24T12:04:21.371Z,14.70
2023-04-24T12:06:07.214Z,14.80
2023-04-24T12:07:44.119Z,14.70
2023-04-24T12:09:18.452Z,14.90
2023-04-24T12:10:53.734Z,15.20
2023-04-24T12:12:28.335Z,15.20
2023-04-24T12:14:12.406Z,15.00
2023-04-24T12:15:45.390Z,14.90
2023-04-24T12:17:18.772Z,15.00
2023-04-24T12:18:53.702Z,15.20
2023-04-24T12:20:29.364Z,15.40
2023-04-24T12:22:06.021Z,15.50
2023-04-24T12:23:39.458Z,15.50
2023-04-24T12:25:13.368Z,15.50
2023-04-24T12:26:46.616Z,15.50
2023-04-24T12:28:19.372Z,15.40
2023-04-24T12:29:56.423Z,15.00
2023-04-24T12:31:31.204Z,14.90
2023-04-24T12:33:05.045Z,14.90
2023-04-24T12:34:38.351Z,14.90
2023-04-24T12:36:13.129Z,15.00
2023-04-24T12:37:47.740Z,15.30
2023-04-24T12:39:24.488Z,15.30
2023-04-24T12:41:05.176Z,15.40
2023-04-24T12:42:45.607Z,15.30
2023-04-24T12:44:19.584Z,15.30
2023-04-24T12:45:52.651Z,15.50
2023-04-24T12:47:25.958Z,15.50
2023-04-24T12:48:59.513Z,15.20
2023-04-24T12:50:32.544Z,15.20
2023-04-24T12:52:05.757Z,15.10
2023-04-24T12:53:40.280Z,15.20
2023-04-24T12:55:14.143Z,15.20
2023-04-24T12:56:47.161Z,15.40
2023-04-24T12:58:20.592Z,15.20
2023-04-24T12:59:55.931Z,15.20
2023-04-24T13:01:29.102Z,15.10
2023-04-24T13:03:03.168Z,15.30
2023-04-24T13:04:36.529Z,15.50
2023-04-24T13:06:09.535Z,15.80
2023-04-24T13:07:42.537Z,16.10
2023-04-24T13:09:16.855Z,16.30
2023-04-24T13:10:49.977Z,16.50
2023-04-24T13:12:24.776Z,16.70
2023-04-24T13:13:57.731Z,16.80
2023-04-24T13:15:31.108Z,17.00
2023-04-24T13:17:04.258Z,16.80
2023-04-24T13:18:37.280Z,16.60
2023-04-24T13:20:10.524Z,16.50
2023-04-24T13:21:43.275Z,16.10
2023-04-24T13:23:17.075Z,15.90
2023-04-24T13:24:51.445Z,15.50
2023-04-24T13:26:24.353Z,15.10
2023-04-24T13:27:57.231Z,14.80
2023-04-24T13:29:30.441Z,14.60
2023-04-24T13:31:03.230Z,14.50
2023-04-24T13:32:36.359Z,14.40
2023-04-24T13:34:09.500Z,14.30
2023-04-24T13:35:42.473Z,14.30
2023-04-24T13:37:15.377Z,14.30
2023-04-24T13:38:48.355Z,14.20
2023-04-24T13:40:22.697Z,14.20
2023-04-24T13:41:55.797Z,14.40
2023-04-24T13:43:28.874Z,14.70
2023-04-24T13:45:06.099Z,14.80
2023-04-24T13:46:48.920Z,14.70
2023-04-24T13:48:21.849Z,14.50
2023-04-24T13:49:55.278Z,14.00
2023-04-24T13:51:28.771Z,13.80
2023-04-24T13:53:02.991Z,13.60
2023-04-24T13:54:36.135Z,13.30
2023-04-24T13:57:57.241Z,13.10
2023-04-24T13:59:30.241Z,13.00
2023-04-24T14:01:03.583Z,13.10
2023-04-24T14:02:36.490Z,13.20
2023-04-24T14:04:09.929Z,13.30
2023-04-24T14:05:42.823Z,13.60
2023-04-24T14:07:15.996Z,13.90
2023-04-24T14:08:50.379Z,14.20
2023-04-24T14:10:23.259Z,14.20
2023-04-24T14:11:56.205Z,14.30
2023-04-24T14:13:30.968Z,14.60
2023-04-24T14:15:06.077Z,14.80
2023-04-24T14:16:39.055Z,14.80
2023-04-24T14:18:12.143Z,14.70
2023-04-24T14:19:45.052Z,14.90
2023-04-24T14:21:17.994Z,14.90
2023-04-24T14:22:51.066Z,15.10
2023-04-24T14:24:24.370Z,15.10
2023-04-24T14:25:57.118Z,15.20
2023-04-24T14:27:30.110Z,15.20
2023-04-24T14:29:14.297Z,15.30
2023-04-24T14:30:48.561Z,15.30
2023-04-24T14:32:21.544Z,15.40
2023-04-24T14:33:54.578Z,15.40
2023-04-24T14:35:29.015Z,15.40
2023-04-24T14:37:03.680Z,15.50
2023-04-24T14:38:36.740Z,15.50
2023-04-24T14:40:29.780Z,15.50
2023-04-24T14:42:03.434Z,15.20
2023-04-24T14:43:36.530Z,15.10
2023-04-24T14:45:11.938Z,15.00
2023-04-24T14:46:45.022Z,14.90
2023-04-24T14:48:18.738Z,15.00
2023-04-24T14:49:51.858Z,14.90
2023-04-24T14:51:23.941Z,14.90
2023-04-24T14:52:58.313Z,14.80
2023-04-24T14:54:31.781Z,14.60
2023-04-24T14:56:04.818Z,14.50
2023-04-24T14:57:38.090Z,14.40
2023-04-24T14:59:10.789Z,14.50
2023-04-24T15:00:45.122Z,14.70
2023-04-24T15:02:19.061Z,14.80
2023-04-24T15:03:54.581Z,14.70
2023-04-24T15:05:28.461Z,14.80
2023-04-24T15:07:01.789Z,14.90
2023-04-24T15:08:34.802Z,14.90
2023-04-24T15:10:08.949Z,14.80
2023-04-24T15:11:42.129Z,14.70
2023-04-24T15:13:15.053Z,14.60
2023-04-24T15:14:47.972Z,14.70
2023-04-24T15:16:26.385Z,14.80
2023-04-24T15:17:59.473Z,14.80
2023-04-24T15:19:32.950Z,14.80
2023-04-24T15:21:06.085Z,14.80
2023-04-24T15:22:38.988Z,14.80
2023-04-24T15:24:11.978Z,14.70
2023-04-24T15:25:44.908Z,14.50
2023-04-24T15:27:17.907Z,14.60
2023-04-24T15:28:51.292Z,14.40
2023-04-24T15:30:24.016Z,14.30
2023-04-24T15:31:58.346Z,14.30
2023-04-24T15:33:31.320Z,14.30
2023-04-24T15:35:08.418Z,14.40
2023-04-24T15:36:42.849Z,14.40
2023-04-24T15:38:15.785Z,14.50
2023-04-24T15:39:48.741Z,14.60
2023-04-24T15:41:22.107Z,14.60
2023-04-24T15:42:55.070Z,14.60
2023-04-24T15:44:28.084Z,14.70
2023-04-24T15:46:01.032Z,14.60
2023-04-24T15:47:36.184Z,14.70
2023-04-24T15:49:09.350Z,14.70
2023-04-24T15:50:42.321Z,14.70
2023-04-24T15:52:15.581Z,14.70
2023-04-24T15:53:48.944Z,14.80
2023-04-24T15:55:22.262Z,14.80
2023-04-24T15:56:55.432Z,14.90
2023-04-24T15:58:28.390Z,14.90
2023-04-24T16:00:01.403Z,14.80
2023-04-24T16:01:34.766Z,14.80
2023-04-24T16:03:10.222Z,14.70
2023-04-24T16:04:43.543Z,14.60
2023-04-24T16:06:16.875Z,14.20
2023-04-24T16:07:49.829Z,13.90
2023-04-24T16:09:22.745Z,13.80
2023-04-24T16:10:55.723Z,13.60
2023-04-24T16:12:28.721Z,13.60
2023-04-24T16:14:01.959Z,13.50
2023-04-24T16:15:34.825Z,13.40
2023-04-24T16:17:07.732Z,13.40
2023-04-24T16:18:41.959Z,13.40
2023-04-24T16:20:15.484Z,13.30
2023-04-24T16:21:48.539Z,13.30
2023-04-24T16:23:21.464Z,13.30
2023-04-24T16:24:54.359Z,13.40
2023-04-24T16:26:27.332Z,13.30
2023-04-24T16:28:00.240Z,13.30
2023-04-24T16:29:33.227Z,13.20
2023-04-24T16:31:06.317Z,13.30
2023-04-24T16:32:39.322Z,13.20
2023-04-24T16:34:13.684Z,13.20
2023-04-24T16:35:47.942Z,13.20
2023-04-24T16:37:21.373Z,13.10
2023-04-24T16:38:54.406Z,13.10
2023-04-24T16:40:27.291Z,13.10
2023-04-24T16:42:01.464Z,13.10
2023-04-24T16:43:34.407Z,13.10
2023-04-24T16:45:08.744Z,13.10
2023-04-24T16:46:41.742Z,13.10
2023-04-24T16:48:14.760Z,13.20
2023-04-24T16:49:50.361Z,13.50
2023-04-24T16:51:23.286Z,13.80
2023-04-24T16:52:56.174Z,14.10
2023-04-24T16:54:30.368Z,14.50
2023-04-24T16:56:03.378Z,14.80
2023-04-24T16:57:36.315Z,14.90
2023-04-24T16:59:09.494Z,15.00
2023-04-24T17:00:42.464Z,14.90
2023-04-24T17:02:15.349Z,14.70
2023-04-24T17:03:48.539Z,14.50
2023-04-24T17:05:23.429Z,14.20
2023-04-24T17:06:56.966Z,14.00
2023-04-24T17:08:30.660Z,13.80
2023-04-24T17:10:04.482Z,13.60
2023-04-24T17:11:37.490Z,13.30
2023-04-24T17:13:10.560Z,13.10
2023-04-24T17:14:43.541Z,13.00
2023-04-24T17:16:16.629Z,12.90
2023-04-24T17:17:51.391Z,12.80
2023-04-24T17:19:25.868Z,12.70
2023-04-24T17:21:00.147Z,12.70
2023-04-24T17:22:33.056Z,12.70
2023-04-24T17:24:06.476Z,12.70
2023-04-24T17:25:39.444Z,12.70
2023-04-24T17:27:15.382Z,12.70
2023-04-24T17:28:49.014Z,12.60
2023-04-24T17:30:22.322Z,12.60
2023-04-24T17:31:55.273Z,12.50
2023-04-24T17:33:29.825Z,12.50
2023-04-24T17:35:03.495Z,12.50
2023-04-24T17:36:38.383Z,12.50
2023-04-24T17:38:11.845Z,12.50
2023-04-24T17:39:44.849Z,12.50
2023-04-24T17:41:17.772Z,12.60
2023-04-24T17:42:50.682Z,12.60
2023-04-24T17:44:23.664Z,12.60
2023-04-24T17:45:57.977Z,12.50
2023-04-24T17:47:31.006Z,12.40
2023-04-24T17:49:04.388Z,12.30
2023-04-24T17:50:37.227Z,12.30
2023-04-24T17:52:12.011Z,12.20
2023-04-24T17:53:45.012Z,12.10
2023-04-24T17:55:18.355Z,12.00
2023-04-24T17:56:53.005Z,11.90
2023-04-24T17:58:26.339Z,11.80
2023-04-24T17:59:59.096Z,11.80
2023-04-24T18:01:34.854Z,11.70
2023-04-24T18:03:09.837Z,11.70
2023-04-24T18:04:43.103Z,11.60
2023-04-24T18:06:17.643Z,11.60
2023-04-24T18:07:51.931Z,11.60
2023-04-24T18:09:24.946Z,11.60
2023-04-24T18:10:58.844Z,11.50
2023-04-24T18:12:31.830Z,11.40
2023-04-24T18:14:04.860Z,11.40
2023-04-24T18:15:41.999Z,11.30
2023-04-24T18:17:14.961Z,11.20
2023-04-24T18:18:48.189Z,11.10
2023-04-24T18:20:21.408Z,11.00
2023-04-24T18:21:54.410Z,10.90
2023-04-24T18:23:28.730Z,10.80
2023-04-24T18:25:01.661Z,10.80
2023-04-24T18:26:34.552Z,10.70
2023-04-24T18:28:07.530Z,10.70
2023-04-24T18:29:40.410Z,10.60
2023-04-24T18:31:13.448Z,10.50
2023-04-24T18:32:46.490Z,10.50
2023-04-24T18:34:19.497Z,10.50
2023-04-24T18:35:52.476Z,10.40
2023-04-24T18:37:25.358Z,10.30
2023-04-24T18:38:59.840Z,10.30
2023-04-24T18:40:32.770Z,10.20
2023-04-24T18:42:05.863Z,10.10
2023-04-24T18:43:38.813Z,10.10
2023-04-24T18:45:15.014Z,10.00
2023-04-24T18:46:48.627Z,10.00
2023-04-24T18:48:21.446Z,10.00
2023-04-24T18:49:54.290Z,9.90
2023-04-24T18:51:27.269Z,9.90
2023-04-24T18:53:00.292Z,10.00
2023-04-24T18:54:34.708Z,9.90
2023-04-24T18:56:07.717Z,9.90
2023-04-24T18:57:40.676Z,9.90
2023-04-24T18:59:13.560Z,9.90
2023-04-24T19:00:46.560Z,9.90
2023-04-24T19:02:19.650Z,9.90
2023-04-24T19:03:52.753Z,9.90
2023-04-24T19:05:25.853Z,9.90
2023-04-24T19:06:58.972Z,10.00
2023-04-24T19:08:31.918Z,9.90
2023-04-24T19:10:07.091Z,9.90
2023-04-24T19:11:41.597Z,9.80
2023-04-24T19:13:14.542Z,9.80
2023-04-24T19:14:47.633Z,9.80
2023-04-24T19:16:19.856Z,9.70
2023-04-24T19:17:53.268Z,9.70
2023-04-24T19:19:28.240Z,9.60
2023-04-24T19:21:01.479Z,9.60
2023-04-24T19:22:34.583Z,9.50
2023-04-24T19:24:09.550Z,9.50
2023-04-24T19:25:43.827Z,9.60
2023-04-24T19:27:16.914Z,9.50
2023-04-24T19:28:50.101Z,9.40
2023-04-24T19:30:23.317Z,9.50
2023-04-24T19:31:58.475Z,9.40
2023-04-24T19:33:31.469Z,9.40
2023-04-24T19:35:04.962Z,9.30
2023-04-24T19:36:38.325Z,9.30
2023-04-24T19:38:11.130Z,9.30
2023-04-24T19:39:44.077Z,9.30
2023-04-24T19:41:18.357Z,9.30
2023-04-24T19:42:51.287Z,9.20
2023-04-24T19:44:25.249Z,9.20
2023-04-24T19:45:58.509Z,9.20
2023-04-24T19:47:31.265Z,9.20
2023-04-24T19:49:04.233Z,9.10
2023-04-24T19:50:38.013Z,9.10
2023-04-24T19:52:11.083Z,9.10
2023-04-24T19:53:44.966Z,9.10
2023-04-24T19:55:18.075Z,9.00
2023-04-24T19:56:52.315Z,9.00
2023-04-24T19:58:25.364Z,9.00
2023-04-24T19:59:58.231Z,9.00
2023-04-24T20:01:32.328Z,8.90
2023-04-24T20:03:05.546Z,9.00
2023-04-24T20:04:38.899Z,9.00
2023-04-24T20:06:11.969Z,9.00
2023-04-24T20:07:46.241Z,8.90
2023-04-24T20:09:19.163Z,8.90
2023-04-24T20:10:53.739Z,8.80
2023-04-24T20:12:28.121Z,8.80
2023-04-24T20:14:03.596Z,8.80